sensor_id;sensor_type;location;lat;lon;timestamp;P1;durP1;ratioP1;P2;durP2;ratioP2
71566;SDS011;59403;47.456;19.120;2023-02-27T00:01:59;6.18;;;3.10;;
71566;SDS011;59403;47.456;19.120;2023-02-27T00:04:26;5.63;;;2.77;;
71566;SDS011;59403;47.456;19.120;2023-02-27T00:06:54;6.47;;;3.17;;
71566;SDS011;59403;47.456;19.120;2023-02-27T00:09:21;6.32;;;2.97;;
71566;SDS011;59403;47.456;19.120;2023-02-27T00:11:49;5.28;;;2.85;;
71566;SDS011;59403;47.456;19.120;2023-02-27T00:14:16;4.37;;;2.70;;
71566;SDS011;59403;47.456;19.120;2023-02-27T00:16:43;5.40;;;3.10;;
71566;SDS011;59403;47.456;19.120;2023-02-27T00:19:10;6.87;;;3.12;;
71566;SDS011;59403;47.456;19.120;2023-02-27T00:21:37;6.30;;;3.30;;
71566;SDS011;59403;47.456;19.120;2023-02-27T00:24:05;5.53;;;2.75;;
71566;SDS011;59403;47.456;19.120;2023-02-27T00:26:32;6.95;;;3.17;;
71566;SDS011;59403;47.456;19.120;2023-02-27T00:29:00;5.93;;;3.07;;
71566;SDS011;59403;47.456;19.120;2023-02-27T00:31:27;6.40;;;3.20;;
71566;SDS011;59403;47.456;19.120;2023-02-27T00:33:54;6.95;;;3.37;;
71566;SDS011;59403;47.456;19.120;2023-02-27T00:36:21;6.35;;;2.92;;
71566;SDS011;59403;47.456;19.120;2023-02-27T00:38:48;6.57;;;2.92;;
71566;SDS011;59403;47.456;19.120;2023-02-27T00:41:15;7.20;;;3.20;;
71566;SDS011;59403;47.456;19.120;2023-02-27T00:43:42;6.37;;;2.80;;
71566;SDS011;59403;47.456;19.120;2023-02-27T00:46:10;6.62;;;3.30;;
71566;SDS011;59403;47.456;19.120;2023-02-27T00:48:37;5.25;;;2.58;;
71566;SDS011;59403;47.456;19.120;2023-02-27T00:51:04;5.05;;;3.03;;
71566;SDS011;59403;47.456;19.120;2023-02-27T00:53:31;5.53;;;2.83;;
71566;SDS011;59403;47.456;19.120;2023-02-27T00:55:58;7.65;;;3.28;;
71566;SDS011;59403;47.456;19.120;2023-02-27T00:58:25;7.12;;;3.67;;
71566;SDS011;59403;47.456;19.120;2023-02-27T01:00:52;6.62;;;3.12;;
71566;SDS011;59403;47.456;19.120;2023-02-27T01:03:20;6.57;;;3.28;;
71566;SDS011;59403;47.456;19.120;2023-02-27T01:05:47;6.47;;;3.13;;
71566;SDS011;59403;47.456;19.120;2023-02-27T01:08:14;6.05;;;3.30;;
71566;SDS011;59403;47.456;19.120;2023-02-27T01:10:40;8.43;;;3.53;;
71566;SDS011;59403;47.456;19.120;2023-02-27T01:13:07;6.32;;;2.87;;
71566;SDS011;59403;47.456;19.120;2023-02-27T01:15:34;8.05;;;3.67;;
71566;SDS011;59403;47.456;19.120;2023-02-27T01:18:01;6.33;;;3.13;;
71566;SDS011;59403;47.456;19.120;2023-02-27T01:20:30;6.05;;;3.08;;
71566;SDS011;59403;47.456;19.120;2023-02-27T01:22:57;5.85;;;2.83;;
71566;SDS011;59403;47.456;19.120;2023-02-27T01:25:23;5.45;;;3.05;;
71566;SDS011;59403;47.456;19.120;2023-02-27T01:27:50;5.95;;;3.05;;
71566;SDS011;59403;47.456;19.120;2023-02-27T01:30:17;7.17;;;2.83;;
71566;SDS011;59403;47.456;19.120;2023-02-27T01:32:44;5.72;;;3.28;;
71566;SDS011;59403;47.456;19.120;2023-02-27T01:35:11;6.75;;;3.08;;
71566;SDS011;59403;47.456;19.120;2023-02-27T01:37:40;6.93;;;3.60;;
71566;SDS011;59403;47.456;19.120;2023-02-27T01:40:07;7.15;;;3.55;;
71566;SDS011;59403;47.456;19.120;2023-02-27T01:42:36;7.10;;;3.33;;
71566;SDS011;59403;47.456;19.120;2023-02-27T01:48:00;5.85;;;3.20;;
71566;SDS011;59403;47.456;19.120;2023-02-27T01:50:32;8.13;;;3.78;;
71566;SDS011;59403;47.456;19.120;2023-02-27T01:53:01;7.70;;;3.72;;
71566;SDS011;59403;47.456;19.120;2023-02-27T01:55:30;5.87;;;3.47;;
71566;SDS011;59403;47.456;19.120;2023-02-27T01:58:02;5.82;;;3.05;;
71566;SDS011;59403;47.456;19.120;2023-02-27T02:00:29;5.18;;;3.00;;
71566;SDS011;59403;47.456;19.120;2023-02-27T02:05:47;6.15;;;2.97;;
71566;SDS011;59403;47.456;19.120;2023-02-27T02:08:22;7.17;;;3.00;;
71566;SDS011;59403;47.456;19.120;2023-02-27T02:10:52;7.78;;;2.90;;
71566;SDS011;59403;47.456;19.120;2023-02-27T02:13:21;6.70;;;3.50;;
71566;SDS011;59403;47.456;19.120;2023-02-27T02:15:51;5.43;;;2.78;;
71566;SDS011;59403;47.456;19.120;2023-02-27T02:18:32;6.10;;;3.00;;
71566;SDS011;59403;47.456;19.120;2023-02-27T02:24:18;6.03;;;2.50;;
71566;SDS011;59403;47.456;19.120;2023-02-27T02:27:04;5.80;;;2.80;;
71566;SDS011;59403;47.456;19.120;2023-02-27T02:33:13;6.90;;;2.70;;
71566;SDS011;59403;47.456;19.120;2023-02-27T02:36:21;5.23;;;2.90;;
71566;SDS011;59403;47.456;19.120;2023-02-27T02:42:10;6.12;;;2.55;;
71566;SDS011;59403;47.456;19.120;2023-02-27T02:44:45;7.00;;;2.90;;
71566;SDS011;59403;47.456;19.120;2023-02-27T02:47:25;5.53;;;2.72;;
71566;SDS011;59403;47.456;19.120;2023-02-27T02:50:02;5.93;;;2.90;;
71566;SDS011;59403;47.456;19.120;2023-02-27T02:52:41;4.37;;;2.72;;
71566;SDS011;59403;47.456;19.120;2023-02-27T02:55:17;6.32;;;2.80;;
71566;SDS011;59403;47.456;19.120;2023-02-27T02:57:51;5.07;;;2.17;;
71566;SDS011;59403;47.456;19.120;2023-02-27T03:00:21;6.68;;;2.60;;
71566;SDS011;59403;47.456;19.120;2023-02-27T03:02:54;5.40;;;2.27;;
71566;SDS011;59403;47.456;19.120;2023-02-27T03:05:26;4.18;;;2.25;;
71566;SDS011;59403;47.456;19.120;2023-02-27T03:07:59;6.10;;;2.30;;
71566;SDS011;59403;47.456;19.120;2023-02-27T03:10:32;4.68;;;2.85;;
71566;SDS011;59403;47.456;19.120;2023-02-27T03:13:06;6.43;;;2.78;;
71566;SDS011;59403;47.456;19.120;2023-02-27T03:15:37;7.50;;;2.40;;
71566;SDS011;59403;47.456;19.120;2023-02-27T03:18:12;5.03;;;2.72;;
71566;SDS011;59403;47.456;19.120;2023-02-27T03:20:46;4.90;;;2.80;;
71566;SDS011;59403;47.456;19.120;2023-02-27T03:23:18;5.07;;;2.42;;
71566;SDS011;59403;47.456;19.120;2023-02-27T03:25:50;5.82;;;2.80;;
71566;SDS011;59403;47.456;19.120;2023-02-27T03:28:19;4.43;;;2.30;;
71566;SDS011;59403;47.456;19.120;2023-02-27T03:30:51;5.28;;;2.50;;
71566;SDS011;59403;47.456;19.120;2023-02-27T03:33:23;8.95;;;2.90;;
71566;SDS011;59403;47.456;19.120;2023-02-27T03:35:56;5.22;;;2.53;;
71566;SDS011;59403;47.456;19.120;2023-02-27T03:38:32;4.55;;;2.75;;
71566;SDS011;59403;47.456;19.120;2023-02-27T03:41:08;5.83;;;2.57;;
71566;SDS011;59403;47.456;19.120;2023-02-27T03:43:43;4.97;;;2.40;;
71566;SDS011;59403;47.456;19.120;2023-02-27T03:46:16;5.35;;;2.58;;
71566;SDS011;59403;47.456;19.120;2023-02-27T03:51:15;6.15;;;2.83;;
71566;SDS011;59403;47.456;19.120;2023-02-27T03:53:45;5.13;;;2.00;;
71566;SDS011;59403;47.456;19.120;2023-02-27T03:56:19;5.07;;;2.33;;
71566;SDS011;59403;47.456;19.120;2023-02-27T03:58:51;4.95;;;2.60;;
71566;SDS011;59403;47.456;19.120;2023-02-27T04:01:18;6.20;;;2.75;;
71566;SDS011;59403;47.456;19.120;2023-02-27T04:03:47;6.87;;;2.67;;
71566;SDS011;59403;47.456;19.120;2023-02-27T04:06:14;4.70;;;2.27;;
71566;SDS011;59403;47.456;19.120;2023-02-27T04:09:00;5.03;;;2.40;;
71566;SDS011;59403;47.456;19.120;2023-02-27T04:11:36;5.18;;;2.70;;
71566;SDS011;59403;47.456;19.120;2023-02-27T04:14:17;4.62;;;2.20;;
71566;SDS011;59403;47.456;19.120;2023-02-27T04:19:50;5.30;;;2.40;;
71566;SDS011;59403;47.456;19.120;2023-02-27T04:22:31;4.50;;;1.90;;
71566;SDS011;59403;47.456;19.120;2023-02-27T04:25:05;5.28;;;2.72;;
71566;SDS011;59403;47.456;19.120;2023-02-27T04:27:59;5.20;;;2.10;;
71566;SDS011;59403;47.456;19.120;2023-02-27T04:30:38;5.07;;;2.20;;
71566;SDS011;59403;47.456;19.120;2023-02-27T04:33:11;4.13;;;2.20;;
71566;SDS011;59403;47.456;19.120;2023-02-27T04:35:42;6.12;;;2.70;;
71566;SDS011;59403;47.456;19.120;2023-02-27T04:38:15;4.97;;;2.20;;
71566;SDS011;59403;47.456;19.120;2023-02-27T04:40:47;4.55;;;2.22;;
71566;SDS011;59403;47.456;19.120;2023-02-27T04:43:20;4.35;;;2.20;;
71566;SDS011;59403;47.456;19.120;2023-02-27T04:45:50;4.90;;;2.13;;
71566;SDS011;59403;47.456;19.120;2023-02-27T04:48:22;5.75;;;2.25;;
71566;SDS011;59403;47.456;19.120;2023-02-27T04:50:53;4.53;;;2.20;;
71566;SDS011;59403;47.456;19.120;2023-02-27T04:53:23;4.87;;;2.03;;
71566;SDS011;59403;47.456;19.120;2023-02-27T04:55:53;4.35;;;1.92;;
71566;SDS011;59403;47.456;19.120;2023-02-27T04:58:27;3.67;;;1.83;;
71566;SDS011;59403;47.456;19.120;2023-02-27T05:00:58;5.80;;;2.58;;
71566;SDS011;59403;47.456;19.120;2023-02-27T05:03:29;4.72;;;2.40;;
71566;SDS011;59403;47.456;19.120;2023-02-27T05:06:00;4.55;;;2.28;;
71566;SDS011;59403;47.456;19.120;2023-02-27T05:08:29;3.97;;;2.20;;
71566;SDS011;59403;47.456;19.120;2023-02-27T05:11:03;6.13;;;2.60;;
71566;SDS011;59403;47.456;19.120;2023-02-27T05:13:36;5.07;;;2.40;;
71566;SDS011;59403;47.456;19.120;2023-02-27T05:16:07;4.15;;;2.42;;
71566;SDS011;59403;47.456;19.120;2023-02-27T05:18:39;4.45;;;1.90;;
71566;SDS011;59403;47.456;19.120;2023-02-27T05:21:08;4.82;;;2.33;;
71566;SDS011;59403;47.456;19.120;2023-02-27T05:23:57;5.33;;;2.30;;
71566;SDS011;59403;47.456;19.120;2023-02-27T05:26:35;5.35;;;2.10;;
71566;SDS011;59403;47.456;19.120;2023-02-27T05:29:16;4.28;;;2.08;;
71566;SDS011;59403;47.456;19.120;2023-02-27T05:31:49;6.60;;;2.55;;
71566;SDS011;59403;47.456;19.120;2023-02-27T05:34:20;5.30;;;2.90;;
71566;SDS011;59403;47.456;19.120;2023-02-27T05:36:52;5.07;;;2.40;;
71566;SDS011;59403;47.456;19.120;2023-02-27T05:39:23;5.28;;;1.87;;
71566;SDS011;59403;47.456;19.120;2023-02-27T05:41:55;5.28;;;2.37;;
71566;SDS011;59403;47.456;19.120;2023-02-27T05:44:28;6.12;;;2.10;;
71566;SDS011;59403;47.456;19.120;2023-02-27T05:46:58;6.22;;;2.53;;
71566;SDS011;59403;47.456;19.120;2023-02-27T05:49:28;7.03;;;2.17;;
71566;SDS011;59403;47.456;19.120;2023-02-27T05:51:58;5.45;;;2.60;;
71566;SDS011;59403;47.456;19.120;2023-02-27T05:54:28;4.50;;;2.45;;
71566;SDS011;59403;47.456;19.120;2023-02-27T05:57:00;6.05;;;2.28;;
71566;SDS011;59403;47.456;19.120;2023-02-27T05:59:33;4.93;;;2.33;;
71566;SDS011;59403;47.456;19.120;2023-02-27T06:02:07;4.40;;;2.10;;
71566;SDS011;59403;47.456;19.120;2023-02-27T06:04:35;5.97;;;2.35;;
71566;SDS011;59403;47.456;19.120;2023-02-27T06:07:02;6.30;;;2.30;;
71566;SDS011;59403;47.456;19.120;2023-02-27T06:09:30;5.05;;;2.12;;
71566;SDS011;59403;47.456;19.120;2023-02-27T06:11:57;5.30;;;2.35;;
71566;SDS011;59403;47.456;19.120;2023-02-27T06:14:26;3.63;;;2.20;;
71566;SDS011;59403;47.456;19.120;2023-02-27T06:16:55;6.35;;;2.40;;
71566;SDS011;59403;47.456;19.120;2023-02-27T06:19:23;4.35;;;2.58;;
71566;SDS011;59403;47.456;19.120;2023-02-27T06:21:50;5.95;;;2.20;;
71566;SDS011;59403;47.456;19.120;2023-02-27T06:24:17;5.78;;;2.20;;
71566;SDS011;59403;47.456;19.120;2023-02-27T06:26:44;5.27;;;2.17;;
71566;SDS011;59403;47.456;19.120;2023-02-27T06:29:11;8.23;;;2.95;;
71566;SDS011;59403;47.456;19.120;2023-02-27T06:31:38;7.70;;;2.55;;
71566;SDS011;59403;47.456;19.120;2023-02-27T06:34:06;4.30;;;2.12;;
71566;SDS011;59403;47.456;19.120;2023-02-27T06:36:33;6.45;;;2.30;;
71566;SDS011;59403;47.456;19.120;2023-02-27T06:39:00;4.87;;;2.20;;
71566;SDS011;59403;47.456;19.120;2023-02-27T06:41:27;5.60;;;2.10;;
71566;SDS011;59403;47.456;19.120;2023-02-27T06:43:54;6.45;;;2.28;;
71566;SDS011;59403;47.456;19.120;2023-02-27T06:46:22;6.25;;;2.40;;
71566;SDS011;59403;47.456;19.120;2023-02-27T06:48:49;6.15;;;2.28;;
71566;SDS011;59403;47.456;19.120;2023-02-27T06:51:17;6.50;;;2.43;;
71566;SDS011;59403;47.456;19.120;2023-02-27T06:53:44;5.47;;;2.00;;
71566;SDS011;59403;47.456;19.120;2023-02-27T06:56:11;6.53;;;2.60;;
71566;SDS011;59403;47.456;19.120;2023-02-27T06:58:38;4.93;;;2.55;;
71566;SDS011;59403;47.456;19.120;2023-02-27T07:01:04;5.47;;;2.30;;
71566;SDS011;59403;47.456;19.120;2023-02-27T07:03:31;6.03;;;2.47;;
71566;SDS011;59403;47.456;19.120;2023-02-27T07:05:58;4.90;;;1.90;;
71566;SDS011;59403;47.456;19.120;2023-02-27T07:08:27;5.55;;;2.37;;
71566;SDS011;59403;47.456;19.120;2023-02-27T07:10:54;7.47;;;2.45;;
71566;SDS011;59403;47.456;19.120;2023-02-27T07:13:22;5.28;;;2.25;;
71566;SDS011;59403;47.456;19.120;2023-02-27T07:15:49;4.03;;;1.50;;
71566;SDS011;59403;47.456;19.120;2023-02-27T07:18:16;6.03;;;2.12;;
71566;SDS011;59403;47.456;19.120;2023-02-27T07:20:43;5.97;;;2.47;;
71566;SDS011;59403;47.456;19.120;2023-02-27T07:23:10;6.32;;;2.15;;
71566;SDS011;59403;47.456;19.120;2023-02-27T07:25:38;5.25;;;2.05;;
71566;SDS011;59403;47.456;19.120;2023-02-27T07:28:05;5.40;;;2.47;;
71566;SDS011;59403;47.456;19.120;2023-02-27T07:30:32;4.00;;;1.90;;
71566;SDS011;59403;47.456;19.120;2023-02-27T07:32:59;3.92;;;1.87;;
71566;SDS011;59403;47.456;19.120;2023-02-27T07:35:26;5.03;;;1.60;;
71566;SDS011;59403;47.456;19.120;2023-02-27T07:37:53;4.40;;;2.40;;
71566;SDS011;59403;47.456;19.120;2023-02-27T07:40:20;4.67;;;1.70;;
71566;SDS011;59403;47.456;19.120;2023-02-27T07:42:48;6.10;;;1.83;;
71566;SDS011;59403;47.456;19.120;2023-02-27T07:45:15;4.18;;;1.92;;
71566;SDS011;59403;47.456;19.120;2023-02-27T07:47:43;3.42;;;1.60;;
71566;SDS011;59403;47.456;19.120;2023-02-27T07:50:10;4.93;;;2.10;;
71566;SDS011;59403;47.456;19.120;2023-02-27T07:52:38;10.40;;;2.27;;
71566;SDS011;59403;47.456;19.120;2023-02-27T07:55:05;3.83;;;2.00;;
71566;SDS011;59403;47.456;19.120;2023-02-27T07:58:07;7.40;;;2.20;;
71566;SDS011;59403;47.456;19.120;2023-02-27T08:00:34;6.45;;;2.70;;
71566;SDS011;59403;47.456;19.120;2023-02-27T08:03:02;4.68;;;1.85;;
71566;SDS011;59403;47.456;19.120;2023-02-27T08:05:29;5.77;;;2.07;;
71566;SDS011;59403;47.456;19.120;2023-02-27T08:07:56;4.95;;;2.17;;
71566;SDS011;59403;47.456;19.120;2023-02-27T08:10:23;5.12;;;2.12;;
71566;SDS011;59403;47.456;19.120;2023-02-27T08:12:50;3.12;;;1.40;;
71566;SDS011;59403;47.456;19.120;2023-02-27T08:15:19;5.72;;;2.42;;
71566;SDS011;59403;47.456;19.120;2023-02-27T08:17:46;5.20;;;1.77;;
71566;SDS011;59403;47.456;19.120;2023-02-27T08:20:13;5.55;;;2.05;;
71566;SDS011;59403;47.456;19.120;2023-02-27T08:22:41;4.70;;;2.00;;
71566;SDS011;59403;47.456;19.120;2023-02-27T08:25:08;5.97;;;2.25;;
71566;SDS011;59403;47.456;19.120;2023-02-27T08:27:37;3.92;;;1.95;;
71566;SDS011;59403;47.456;19.120;2023-02-27T08:30:04;5.87;;;2.20;;
71566;SDS011;59403;47.456;19.120;2023-02-27T08:32:37;7.82;;;1.75;;
71566;SDS011;59403;47.456;19.120;2023-02-27T08:35:04;3.12;;;1.98;;
71566;SDS011;59403;47.456;19.120;2023-02-27T08:37:31;3.33;;;1.58;;
71566;SDS011;59403;47.456;19.120;2023-02-27T08:39:58;4.15;;;2.08;;
71566;SDS011;59403;47.456;19.120;2023-02-27T08:42:25;4.30;;;2.03;;
71566;SDS011;59403;47.456;19.120;2023-02-27T08:44:52;5.55;;;2.00;;
71566;SDS011;59403;47.456;19.120;2023-02-27T08:47:20;4.50;;;2.15;;
71566;SDS011;59403;47.456;19.120;2023-02-27T08:49:48;3.47;;;2.00;;
71566;SDS011;59403;47.456;19.120;2023-02-27T08:52:15;3.78;;;1.95;;
71566;SDS011;59403;47.456;19.120;2023-02-27T08:54:42;4.70;;;2.00;;
71566;SDS011;59403;47.456;19.120;2023-02-27T08:57:09;5.43;;;2.20;;
71566;SDS011;59403;47.456;19.120;2023-02-27T08:59:36;5.68;;;2.33;;
71566;SDS011;59403;47.456;19.120;2023-02-27T09:02:03;8.20;;;2.28;;
71566;SDS011;59403;47.456;19.120;2023-02-27T09:04:30;5.43;;;2.28;;
71566;SDS011;59403;47.456;19.120;2023-02-27T09:06:58;3.73;;;2.00;;
71566;SDS011;59403;47.456;19.120;2023-02-27T09:09:25;4.62;;;2.10;;
71566;SDS011;59403;47.456;19.120;2023-02-27T09:11:52;7.18;;;2.30;;
71566;SDS011;59403;47.456;19.120;2023-02-27T09:14:19;5.95;;;2.22;;
71566;SDS011;59403;47.456;19.120;2023-02-27T09:16:46;3.85;;;2.12;;
71566;SDS011;59403;47.456;19.120;2023-02-27T09:19:13;5.70;;;2.37;;
71566;SDS011;59403;47.456;19.120;2023-02-27T09:21:43;4.70;;;2.10;;
71566;SDS011;59403;47.456;19.120;2023-02-27T09:24:11;5.70;;;2.40;;
71566;SDS011;59403;47.456;19.120;2023-02-27T09:26:38;5.53;;;2.42;;
71566;SDS011;59403;47.456;19.120;2023-02-27T09:29:05;4.47;;;2.20;;
71566;SDS011;59403;47.456;19.120;2023-02-27T09:31:32;5.63;;;2.43;;
71566;SDS011;59403;47.456;19.120;2023-02-27T09:34:06;6.75;;;2.65;;
71566;SDS011;59403;47.456;19.120;2023-02-27T09:36:36;5.15;;;2.75;;
71566;SDS011;59403;47.456;19.120;2023-02-27T09:39:03;5.30;;;2.60;;
71566;SDS011;59403;47.456;19.120;2023-02-27T09:44:43;4.67;;;2.27;;
71566;SDS011;59403;47.456;19.120;2023-02-27T09:47:13;5.15;;;2.20;;
71566;SDS011;59403;47.456;19.120;2023-02-27T09:49:49;5.12;;;2.20;;
71566;SDS011;59403;47.456;19.120;2023-02-27T09:52:22;8.50;;;2.47;;
71566;SDS011;59403;47.456;19.120;2023-02-27T09:54:50;4.30;;;2.00;;
71566;SDS011;59403;47.456;19.120;2023-02-27T09:57:20;4.83;;;2.17;;
71566;SDS011;59403;47.456;19.120;2023-02-27T09:59:59;4.68;;;2.50;;
71566;SDS011;59403;47.456;19.120;2023-02-27T10:02:39;4.10;;;2.33;;
71566;SDS011;59403;47.456;19.120;2023-02-27T10:05:16;6.22;;;1.92;;
71566;SDS011;59403;47.456;19.120;2023-02-27T10:07:53;4.40;;;2.05;;
71566;SDS011;59403;47.456;19.120;2023-02-27T10:10:29;5.10;;;2.00;;
71566;SDS011;59403;47.456;19.120;2023-02-27T10:13:07;3.67;;;1.80;;
71566;SDS011;59403;47.456;19.120;2023-02-27T10:15:51;4.53;;;1.87;;
71566;SDS011;59403;47.456;19.120;2023-02-27T10:18:21;5.87;;;2.72;;
71566;SDS011;59403;47.456;19.120;2023-02-27T10:20:56;4.70;;;2.10;;
71566;SDS011;59403;47.456;19.120;2023-02-27T10:23:27;5.43;;;2.00;;
71566;SDS011;59403;47.456;19.120;2023-02-27T10:26:01;6.15;;;2.33;;
71566;SDS011;59403;47.456;19.120;2023-02-27T10:28:29;4.07;;;1.92;;
71566;SDS011;59403;47.456;19.120;2023-02-27T10:30:59;3.53;;;1.70;;
71566;SDS011;59403;47.456;19.120;2023-02-27T10:33:29;6.25;;;2.30;;
71566;SDS011;59403;47.456;19.120;2023-02-27T10:36:01;5.90;;;2.50;;
71566;SDS011;59403;47.456;19.120;2023-02-27T10:38:31;6.97;;;3.08;;
71566;SDS011;59403;47.456;19.120;2023-02-27T10:41:01;7.15;;;2.85;;
71566;SDS011;59403;47.456;19.120;2023-02-27T10:43:30;6.47;;;3.70;;
71566;SDS011;59403;47.456;19.120;2023-02-27T10:46:01;7.72;;;3.42;;
71566;SDS011;59403;47.456;19.120;2023-02-27T10:48:30;5.83;;;2.70;;
71566;SDS011;59403;47.456;19.120;2023-02-27T10:53:47;5.07;;;2.47;;
71566;SDS011;59403;47.456;19.120;2023-02-27T10:56:17;4.95;;;2.10;;
71566;SDS011;59403;47.456;19.120;2023-02-27T10:58:59;5.65;;;2.72;;
71566;SDS011;59403;47.456;19.120;2023-02-27T11:01:39;5.27;;;2.63;;
71566;SDS011;59403;47.456;19.120;2023-02-27T11:04:07;6.03;;;2.50;;
71566;SDS011;59403;47.456;19.120;2023-02-27T11:06:36;4.10;;;2.40;;
71566;SDS011;59403;47.456;19.120;2023-02-27T11:09:10;5.35;;;2.35;;
71566;SDS011;59403;47.456;19.120;2023-02-27T11:11:44;7.22;;;2.83;;
71566;SDS011;59403;47.456;19.120;2023-02-27T11:14:19;7.00;;;2.90;;
71566;SDS011;59403;47.456;19.120;2023-02-27T11:16:52;7.28;;;2.75;;
71566;SDS011;59403;47.456;19.120;2023-02-27T11:19:24;5.37;;;2.72;;
71566;SDS011;59403;47.456;19.120;2023-02-27T11:22:01;7.00;;;2.50;;
71566;SDS011;59403;47.456;19.120;2023-02-27T11:24:30;4.35;;;2.45;;
71566;SDS011;59403;47.456;19.120;2023-02-27T11:26:58;4.23;;;2.33;;
71566;SDS011;59403;47.456;19.120;2023-02-27T11:29:28;5.37;;;2.53;;
71566;SDS011;59403;47.456;19.120;2023-02-27T11:31:57;4.82;;;2.72;;
71566;SDS011;59403;47.456;19.120;2023-02-27T11:34:27;5.78;;;2.90;;
71566;SDS011;59403;47.456;19.120;2023-02-27T11:36:57;4.87;;;2.60;;
71566;SDS011;59403;47.456;19.120;2023-02-27T11:39:36;6.77;;;2.60;;
71566;SDS011;59403;47.456;19.120;2023-02-27T11:42:17;4.35;;;2.47;;
71566;SDS011;59403;47.456;19.120;2023-02-27T11:44:53;5.55;;;2.75;;
71566;SDS011;59403;47.456;19.120;2023-02-27T11:47:25;5.47;;;2.65;;
71566;SDS011;59403;47.456;19.120;2023-02-27T11:56:10;10.18;;;2.80;;
71566;SDS011;59403;47.456;19.120;2023-02-27T11:58:41;6.28;;;2.95;;
71566;SDS011;59403;47.456;19.120;2023-02-27T12:01:14;8.02;;;2.80;;
71566;SDS011;59403;47.456;19.120;2023-02-27T12:03:48;5.37;;;2.50;;
71566;SDS011;59403;47.456;19.120;2023-02-27T12:06:22;6.63;;;2.73;;
71566;SDS011;59403;47.456;19.120;2023-02-27T12:08:56;5.93;;;3.20;;
71566;SDS011;59403;47.456;19.120;2023-02-27T12:11:30;5.50;;;3.20;;
71566;SDS011;59403;47.456;19.120;2023-02-27T12:13:58;5.85;;;2.90;;
71566;SDS011;59403;47.456;19.120;2023-02-27T12:16:33;6.40;;;3.00;;
71566;SDS011;59403;47.456;19.120;2023-02-27T12:19:09;6.47;;;3.13;;
71566;SDS011;59403;47.456;19.120;2023-02-27T12:21:42;4.97;;;2.90;;
71566;SDS011;59403;47.456;19.120;2023-02-27T12:24:15;6.78;;;3.60;;
71566;SDS011;59403;47.456;19.120;2023-02-27T12:26:48;6.25;;;3.10;;
71566;SDS011;59403;47.456;19.120;2023-02-27T12:29:22;4.28;;;2.53;;
71566;SDS011;59403;47.456;19.120;2023-02-27T12:31:55;5.87;;;2.70;;
71566;SDS011;59403;47.456;19.120;2023-02-27T12:34:31;5.30;;;2.60;;
71566;SDS011;59403;47.456;19.120;2023-02-27T12:37:04;7.22;;;3.30;;
71566;SDS011;59403;47.456;19.120;2023-02-27T12:39:37;5.43;;;2.90;;
71566;SDS011;59403;47.456;19.120;2023-02-27T12:45:14;7.77;;;3.30;;
71566;SDS011;59403;47.456;19.120;2023-02-27T12:47:50;6.53;;;3.22;;
71566;SDS011;59403;47.456;19.120;2023-02-27T12:50:25;7.00;;;3.20;;
71566;SDS011;59403;47.456;19.120;2023-02-27T12:53:04;5.82;;;3.20;;
71566;SDS011;59403;47.456;19.120;2023-02-27T12:55:44;6.65;;;3.30;;
71566;SDS011;59403;47.456;19.120;2023-02-27T12:58:17;8.27;;;3.30;;
71566;SDS011;59403;47.456;19.120;2023-02-27T13:00:53;6.00;;;3.15;;
71566;SDS011;59403;47.456;19.120;2023-02-27T13:03:26;8.77;;;3.05;;
71566;SDS011;59403;47.456;19.120;2023-02-27T13:06:02;7.03;;;3.10;;
71566;SDS011;59403;47.456;19.120;2023-02-27T13:08:42;7.07;;;3.35;;
71566;SDS011;59403;47.456;19.120;2023-02-27T13:11:34;5.90;;;3.27;;
71566;SDS011;59403;47.456;19.120;2023-02-27T13:14:13;5.82;;;2.80;;
71566;SDS011;59403;47.456;19.120;2023-02-27T13:16:52;6.53;;;3.60;;
71566;SDS011;59403;47.456;19.120;2023-02-27T13:19:25;6.10;;;2.97;;
71566;SDS011;59403;47.456;19.120;2023-02-27T13:22:01;5.87;;;3.60;;
71566;SDS011;59403;47.456;19.120;2023-02-27T13:24:33;5.63;;;3.20;;
71566;SDS011;59403;47.456;19.120;2023-02-27T13:27:12;7.00;;;3.20;;
71566;SDS011;59403;47.456;19.120;2023-02-27T13:29:44;7.32;;;3.58;;
71566;SDS011;59403;47.456;19.120;2023-02-27T13:32:21;6.32;;;3.22;;
71566;SDS011;59403;47.456;19.120;2023-02-27T13:34:53;6.60;;;3.37;;
71566;SDS011;59403;47.456;19.120;2023-02-27T13:37:25;6.47;;;3.20;;
71566;SDS011;59403;47.456;19.120;2023-02-27T13:40:35;7.15;;;3.15;;
71566;SDS011;59403;47.456;19.120;2023-02-27T13:43:04;6.78;;;3.40;;
71566;SDS011;59403;47.456;19.120;2023-02-27T13:45:52;8.55;;;3.50;;
71566;SDS011;59403;47.456;19.120;2023-02-27T13:51:08;4.87;;;3.17;;
71566;SDS011;59403;47.456;19.120;2023-02-27T13:54:11;6.22;;;2.95;;
71566;SDS011;59403;47.456;19.120;2023-02-27T13:56:44;8.27;;;3.33;;
71566;SDS011;59403;47.456;19.120;2023-02-27T13:59:17;5.80;;;3.10;;
71566;SDS011;59403;47.456;19.120;2023-02-27T14:01:49;6.18;;;2.85;;
71566;SDS011;59403;47.456;19.120;2023-02-27T14:04:18;6.33;;;3.17;;
71566;SDS011;59403;47.456;19.120;2023-02-27T14:06:47;5.90;;;2.78;;
71566;SDS011;59403;47.456;19.120;2023-02-27T14:09:17;6.35;;;3.45;;
71566;SDS011;59403;47.456;19.120;2023-02-27T14:11:50;6.25;;;3.00;;
71566;SDS011;59403;47.456;19.120;2023-02-27T14:14:37;7.60;;;3.42;;
71566;SDS011;59403;47.456;19.120;2023-02-27T14:17:09;8.17;;;3.87;;
71566;SDS011;59403;47.456;19.120;2023-02-27T14:19:48;10.65;;;3.20;;
71566;SDS011;59403;47.456;19.120;2023-02-27T14:22:28;6.07;;;3.53;;
71566;SDS011;59403;47.456;19.120;2023-02-27T14:25:27;7.78;;;3.58;;
71566;SDS011;59403;47.456;19.120;2023-02-27T14:27:58;8.38;;;3.62;;
71566;SDS011;59403;47.456;19.120;2023-02-27T14:30:37;6.47;;;3.27;;
71566;SDS011;59403;47.456;19.120;2023-02-27T14:33:16;6.50;;;3.70;;
71566;SDS011;59403;47.456;19.120;2023-02-27T14:35:47;5.60;;;3.22;;
71566;SDS011;59403;47.456;19.120;2023-02-27T14:38:23;6.65;;;3.40;;
71566;SDS011;59403;47.456;19.120;2023-02-27T14:40:58;6.87;;;3.30;;
71566;SDS011;59403;47.456;19.120;2023-02-27T14:43:43;9.73;;;3.30;;
71566;SDS011;59403;47.456;19.120;2023-02-27T14:46:21;8.68;;;4.10;;
71566;SDS011;59403;47.456;19.120;2023-02-27T14:48:53;6.45;;;3.58;;
71566;SDS011;59403;47.456;19.120;2023-02-27T14:51:21;6.10;;;3.30;;
71566;SDS011;59403;47.456;19.120;2023-02-27T14:53:59;5.97;;;3.40;;
71566;SDS011;59403;47.456;19.120;2023-02-27T14:56:29;5.93;;;3.27;;
71566;SDS011;59403;47.456;19.120;2023-02-27T14:58:57;5.65;;;3.53;;
71566;SDS011;59403;47.456;19.120;2023-02-27T15:01:24;8.35;;;3.92;;
71566;SDS011;59403;47.456;19.120;2023-02-27T15:03:53;8.85;;;3.50;;
71566;SDS011;59403;47.456;19.120;2023-02-27T15:06:23;6.87;;;3.58;;
71566;SDS011;59403;47.456;19.120;2023-02-27T15:08:59;5.53;;;3.40;;
71566;SDS011;59403;47.456;19.120;2023-02-27T15:11:26;9.27;;;3.25;;
71566;SDS011;59403;47.456;19.120;2023-02-27T15:13:56;6.20;;;3.30;;
71566;SDS011;59403;47.456;19.120;2023-02-27T15:16:32;7.05;;;3.58;;
71566;SDS011;59403;47.456;19.120;2023-02-27T15:19:03;7.47;;;3.60;;
71566;SDS011;59403;47.456;19.120;2023-02-27T15:21:43;6.97;;;3.30;;
71566;SDS011;59403;47.456;19.120;2023-02-27T15:24:24;10.07;;;3.75;;
71566;SDS011;59403;47.456;19.120;2023-02-27T15:26:53;6.30;;;3.53;;
71566;SDS011;59403;47.456;19.120;2023-02-27T15:29:29;7.37;;;3.25;;
71566;SDS011;59403;47.456;19.120;2023-02-27T15:31:59;8.75;;;3.80;;
71566;SDS011;59403;47.456;19.120;2023-02-27T15:34:28;7.27;;;3.27;;
71566;SDS011;59403;47.456;19.120;2023-02-27T15:36:56;7.07;;;3.47;;
71566;SDS011;59403;47.456;19.120;2023-02-27T15:39:25;7.12;;;3.58;;